sensor_id;sensor_type;location;lat;lon;timestamp;temperature;humidity
16198;DHT22;8206;51.440;6.914;2023-07-31T00:01:36;16.30;99.90
16198;DHT22;8206;51.440;6.914;2023-07-31T00:04:03;16.20;99.90
16198;DHT22;8206;51.440;6.914;2023-07-31T00:06:30;16.30;99.90
16198;DHT22;8206;51.440;6.914;2023-07-31T00:08:56;16.30;99.90
16198;DHT22;8206;51.440;6.914;2023-07-31T00:11:23;16.30;99.90
16198;DHT22;8206;51.440;6.914;2023-07-31T00:13:53;16.30;99.90
16198;DHT22;8206;51.440;6.914;2023-07-31T00:16:19;16.30;99.90
16198;DHT22;8206;51.440;6.914;2023-07-31T00:18:46;16.30;99.90
16198;DHT22;8206;51.440;6.914;2023-07-31T00:21:13;16.30;99.90
16198;DHT22;8206;51.440;6.914;2023-07-31T00:23:39;16.30;99.90
16198;DHT22;8206;51.440;6.914;2023-07-31T00:26:06;16.30;99.90
16198;DHT22;8206;51.440;6.914;2023-07-31T00:28:33;16.30;99.90
16198;DHT22;8206;51.440;6.914;2023-07-31T00:31:01;16.30;99.90
16198;DHT22;8206;51.440;6.914;2023-07-31T00:33:29;16.30;99.90
16198;DHT22;8206;51.440;6.914;2023-07-31T00:35:56;16.30;99.90
16198;DHT22;8206;51.440;6.914;2023-07-31T00:38:22;16.30;99.90
16198;DHT22;8206;51.440;6.914;2023-07-31T00:40:49;16.20;99.90
16198;DHT22;8206;51.440;6.914;2023-07-31T00:43:16;16.20;99.90
16198;DHT22;8206;51.440;6.914;2023-07-31T00:45:42;16.20;99.90
16198;DHT22;8206;51.440;6.914;2023-07-31T00:48:10;16.30;99.90
16198;DHT22;8206;51.440;6.914;2023-07-31T00:50:37;16.20;99.90
16198;DHT22;8206;51.440;6.914;2023-07-31T00:53:05;16.30;99.90
16198;DHT22;8206;51.440;6.914;2023-07-31T00:55:32;16.30;99.90
16198;DHT22;8206;51.440;6.914;2023-07-31T00:57:58;16.30;99.90
16198;DHT22;8206;51.440;6.914;2023-07-31T01:00:25;16.30;99.90
16198;DHT22;8206;51.440;6.914;2023-07-31T01:02:52;16.30;99.90
16198;DHT22;8206;51.440;6.914;2023-07-31T01:05:29;16.30;99.90
16198;DHT22;8206;51.440;6.914;2023-07-31T01:08:03;16.30;99.90
16198;DHT22;8206;51.440;6.914;2023-07-31T01:10:37;16.30;99.90
16198;DHT22;8206;51.440;6.914;2023-07-31T01:13:08;16.20;99.90
16198;DHT22;8206;51.440;6.914;2023-07-31T01:15:36;16.20;99.90
16198;DHT22;8206;51.440;6.914;2023-07-31T01:18:04;16.30;99.90
16198;DHT22;8206;51.440;6.914;2023-07-31T01:20:33;16.30;99.90
16198;DHT22;8206;51.440;6.914;2023-07-31T01:23:22;16.30;99.90
16198;DHT22;8206;51.440;6.914;2023-07-31T01:26:03;16.30;99.90
16198;DHT22;8206;51.440;6.914;2023-07-31T01:28:36;16.20;99.90
16198;DHT22;8206;51.440;6.914;2023-07-31T01:31:07;16.20;99.90
16198;DHT22;8206;51.440;6.914;2023-07-31T01:33:36;16.30;99.90
16198;DHT22;8206;51.440;6.914;2023-07-31T01:36:04;16.30;99.90
16198;DHT22;8206;51.440;6.914;2023-07-31T01:38:31;16.30;99.90
16198;DHT22;8206;51.440;6.914;2023-07-31T01:40:59;16.20;99.90
16198;DHT22;8206;51.440;6.914;2023-07-31T01:43:26;16.20;99.90
16198;DHT22;8206;51.440;6.914;2023-07-31T01:45:53;16.20;99.90
16198;DHT22;8206;51.440;6.914;2023-07-31T01:48:19;16.20;99.90
16198;DHT22;8206;51.440;6.914;2023-07-31T01:50:46;16.30;99.90
16198;DHT22;8206;51.440;6.914;2023-07-31T01:53:13;16.30;99.90
16198;DHT22;8206;51.440;6.914;2023-07-31T01:55:40;16.30;99.90
16198;DHT22;8206;51.440;6.914;2023-07-31T01:58:08;16.30;99.90
16198;DHT22;8206;51.440;6.914;2023-07-31T02:00:34;16.20;99.90
16198;DHT22;8206;51.440;6.914;2023-07-31T02:03:01;16.20;99.90
16198;DHT22;8206;51.440;6.914;2023-07-31T02:05:28;16.20;99.90
16198;DHT22;8206;51.440;6.914;2023-07-31T02:07:54;16.20;99.90
16198;DHT22;8206;51.440;6.914;2023-07-31T02:10:21;16.20;99.90
16198;DHT22;8206;51.440;6.914;2023-07-31T02:12:47;16.10;99.90
16198;DHT22;8206;51.440;6.914;2023-07-31T02:15:16;16.10;99.90
16198;DHT22;8206;51.440;6.914;2023-07-31T02:17:42;16.10;99.90
16198;DHT22;8206;51.440;6.914;2023-07-31T02:20:10;16.10;99.90
16198;DHT22;8206;51.440;6.914;2023-07-31T02:22:36;16.20;99.90
16198;DHT22;8206;51.440;6.914;2023-07-31T02:25:04;16.20;99.90
16198;DHT22;8206;51.440;6.914;2023-07-31T02:27:30;16.10;99.90
16198;DHT22;8206;51.440;6.914;2023-07-31T02:29:57;16.10;99.90
16198;DHT22;8206;51.440;6.914;2023-07-31T02:32:26;16.10;99.90
16198;DHT22;8206;51.440;6.914;2023-07-31T02:34:52;16.10;99.90
16198;DHT22;8206;51.440;6.914;2023-07-31T02:37:19;16.10;99.90
16198;DHT22;8206;51.440;6.914;2023-07-31T02:39:46;16.10;99.90
16198;DHT22;8206;51.440;6.914;2023-07-31T02:42:12;16.10;99.90
16198;DHT22;8206;51.440;6.914;2023-07-31T02:44:39;16.10;99.90
16198;DHT22;8206;51.440;6.914;2023-07-31T02:47:06;16.10;99.90
16198;DHT22;8206;51.440;6.914;2023-07-31T02:49:34;16.10;99.90
16198;DHT22;8206;51.440;6.914;2023-07-31T02:52:00;16.10;99.90
16198;DHT22;8206;51.440;6.914;2023-07-31T02:54:27;16.10;99.90
16198;DHT22;8206;51.440;6.914;2023-07-31T02:56:54;16.10;99.90
16198;DHT22;8206;51.440;6.914;2023-07-31T02:59:20;16.10;99.90
16198;DHT22;8206;51.440;6.914;2023-07-31T03:01:47;16.10;99.90
16198;DHT22;8206;51.440;6.914;2023-07-31T03:04:14;16.10;99.90
16198;DHT22;8206;51.440;6.914;2023-07-31T03:06:42;16.00;99.90
16198;DHT22;8206;51.440;6.914;2023-07-31T03:09:08;16.10;99.90
16198;DHT22;8206;51.440;6.914;2023-07-31T03:11:35;16.00;99.90
16198;DHT22;8206;51.440;6.914;2023-07-31T03:14:02;16.10;99.90
16198;DHT22;8206;51.440;6.914;2023-07-31T03:16:28;16.10;99.90
16198;DHT22;8206;51.440;6.914;2023-07-31T03:18:55;16.10;99.90
16198;DHT22;8206;51.440;6.914;2023-07-31T03:21:22;16.10;99.90
16198;DHT22;8206;51.440;6.914;2023-07-31T03:23:50;16.20;99.90
16198;DHT22;8206;51.440;6.914;2023-07-31T03:26:17;16.20;99.90
16198;DHT22;8206;51.440;6.914;2023-07-31T03:28:44;16.20;99.90
16198;DHT22;8206;51.440;6.914;2023-07-31T03:31:11;16.20;99.90
16198;DHT22;8206;51.440;6.914;2023-07-31T03:33:38;16.20;99.90
16198;DHT22;8206;51.440;6.914;2023-07-31T03:36:04;16.20;99.90
16198;DHT22;8206;51.440;6.914;2023-07-31T03:38:33;16.30;99.90
16198;DHT22;8206;51.440;6.914;2023-07-31T03:41:01;16.30;99.90
16198;DHT22;8206;51.440;6.914;2023-07-31T03:43:28;16.30;99.90
16198;DHT22;8206;51.440;6.914;2023-07-31T03:45:55;16.30;99.90
16198;DHT22;8206;51.440;6.914;2023-07-31T03:48:21;16.30;99.90
16198;DHT22;8206;51.440;6.914;2023-07-31T03:50:48;16.30;99.90
16198;DHT22;8206;51.440;6.914;2023-07-31T03:53:15;16.30;99.90
16198;DHT22;8206;51.440;6.914;2023-07-31T03:55:41;16.30;99.90
16198;DHT22;8206;51.440;6.914;2023-07-31T03:58:09;16.30;99.90
16198;DHT22;8206;51.440;6.914;2023-07-31T04:00:36;16.30;99.90
16198;DHT22;8206;51.440;6.914;2023-07-31T04:03:03;16.40;99.90
16198;DHT22;8206;51.440;6.914;2023-07-31T04:05:31;16.40;99.90
16198;DHT22;8206;51.440;6.914;2023-07-31T04:07:57;16.40;99.90
16198;DHT22;8206;51.440;6.914;2023-07-31T04:10:24;16.40;99.90
16198;DHT22;8206;51.440;6.914;2023-07-31T04:12:51;16.50;99.90
16198;DHT22;8206;51.440;6.914;2023-07-31T04:15:19;16.50;99.90
16198;DHT22;8206;51.440;6.914;2023-07-31T04:17:46;16.50;99.90
16198;DHT22;8206;51.440;6.914;2023-07-31T04:20:12;16.60;99.90
16198;DHT22;8206;51.440;6.914;2023-07-31T04:22:39;16.60;99.90
16198;DHT22;8206;51.440;6.914;2023-07-31T04:25:06;16.60;99.90
16198;DHT22;8206;51.440;6.914;2023-07-31T04:27:33;16.60;99.90
16198;DHT22;8206;51.440;6.914;2023-07-31T04:29:59;16.50;99.90
16198;DHT22;8206;51.440;6.914;2023-07-31T04:32:27;16.50;99.90
16198;DHT22;8206;51.440;6.914;2023-07-31T04:34:55;16.50;99.90
16198;DHT22;8206;51.440;6.914;2023-07-31T04:37:21;16.60;99.90
16198;DHT22;8206;51.440;6.914;2023-07-31T04:39:48;16.60;99.90
16198;DHT22;8206;51.440;6.914;2023-07-31T04:42:15;16.60;99.90
16198;DHT22;8206;51.440;6.914;2023-07-31T04:44:41;16.60;99.90
16198;DHT22;8206;51.440;6.914;2023-07-31T04:47:08;16.60;99.90
16198;DHT22;8206;51.440;6.914;2023-07-31T04:49:36;16.60;99.90
16198;DHT22;8206;51.440;6.914;2023-07-31T04:52:04;16.60;99.90
16198;DHT22;8206;51.440;6.914;2023-07-31T04:54:30;16.70;99.90
16198;DHT22;8206;51.440;6.914;2023-07-31T04:56:57;16.60;99.90
16198;DHT22;8206;51.440;6.914;2023-07-31T04:59:24;16.60;99.90
16198;DHT22;8206;51.440;6.914;2023-07-31T05:01:50;16.70;99.90
16198;DHT22;8206;51.440;6.914;2023-07-31T05:04:17;16.70;99.90
16198;DHT22;8206;51.440;6.914;2023-07-31T05:06:45;16.80;99.90
16198;DHT22;8206;51.440;6.914;2023-07-31T05:09:12;16.80;99.90
16198;DHT22;8206;51.440;6.914;2023-07-31T05:11:38;16.80;99.90
16198;DHT22;8206;51.440;6.914;2023-07-31T05:14:08;16.80;99.90
16198;DHT22;8206;51.440;6.914;2023-07-31T05:16:34;16.90;99.90
16198;DHT22;8206;51.440;6.914;2023-07-31T05:19:01;16.90;99.90
16198;DHT22;8206;51.440;6.914;2023-07-31T05:21:28;16.80;99.90
16198;DHT22;8206;51.440;6.914;2023-07-31T05:23:56;16.90;99.90
16198;DHT22;8206;51.440;6.914;2023-07-31T05:26:22;16.90;99.90
16198;DHT22;8206;51.440;6.914;2023-07-31T05:28:49;16.90;99.90
16198;DHT22;8206;51.440;6.914;2023-07-31T05:31:16;16.90;99.90
16198;DHT22;8206;51.440;6.914;2023-07-31T05:33:42;16.90;99.90
16198;DHT22;8206;51.440;6.914;2023-07-31T05:36:09;16.90;99.90
16198;DHT22;8206;51.440;6.914;2023-07-31T05:38:36;16.90;99.90
16198;DHT22;8206;51.440;6.914;2023-07-31T05:41:04;16.90;99.90
16198;DHT22;8206;51.440;6.914;2023-07-31T05:43:31;16.90;99.90
16198;DHT22;8206;51.440;6.914;2023-07-31T05:45:57;16.90;99.90
16198;DHT22;8206;51.440;6.914;2023-07-31T05:48:24;16.90;99.90
16198;DHT22;8206;51.440;6.914;2023-07-31T05:50:51;16.90;99.90
16198;DHT22;8206;51.440;6.914;2023-07-31T05:53:17;16.90;99.90
16198;DHT22;8206;51.440;6.914;2023-07-31T05:55:44;16.90;99.90
16198;DHT22;8206;51.440;6.914;2023-07-31T05:58:12;17.00;99.90
16198;DHT22;8206;51.440;6.914;2023-07-31T06:00:39;17.00;99.90
16198;DHT22;8206;51.440;6.914;2023-07-31T06:03:06;17.00;99.90
16198;DHT22;8206;51.440;6.914;2023-07-31T06:05:33;17.10;99.90
16198;DHT22;8206;51.440;6.914;2023-07-31T06:07:59;17.10;99.90
16198;DHT22;8206;51.440;6.914;2023-07-31T06:10:26;17.30;99.90
16198;DHT22;8206;51.440;6.914;2023-07-31T06:12:53;17.30;99.90
16198;DHT22;8206;51.440;6.914;2023-07-31T06:15:21;17.30;99.90
16198;DHT22;8206;51.440;6.914;2023-07-31T06:17:48;17.40;99.90
16198;DHT22;8206;51.440;6.914;2023-07-31T06:20:15;17.40;99.90
16198;DHT22;8206;51.440;6.914;2023-07-31T06:22:41;17.30;99.90
16198;DHT22;8206;51.440;6.914;2023-07-31T06:25:08;17.30;99.90
16198;DHT22;8206;51.440;6.914;2023-07-31T06:27:35;17.20;99.90
16198;DHT22;8206;51.440;6.914;2023-07-31T06:30:02;17.30;99.90
16198;DHT22;8206;51.440;6.914;2023-07-31T06:32:30;17.30;99.90
16198;DHT22;8206;51.440;6.914;2023-07-31T06:34:56;17.30;99.90
16198;DHT22;8206;51.440;6.914;2023-07-31T06:37:23;17.30;99.90
16198;DHT22;8206;51.440;6.914;2023-07-31T06:39:50;17.20;99.90
16198;DHT22;8206;51.440;6.914;2023-07-31T06:42:16;17.20;99.90
16198;DHT22;8206;51.440;6.914;2023-07-31T06:44:43;17.10;99.90
16198;DHT22;8206;51.440;6.914;2023-07-31T06:47:10;17.10;99.90
16198;DHT22;8206;51.440;6.914;2023-07-31T06:49:38;17.10;99.90
16198;DHT22;8206;51.440;6.914;2023-07-31T06:52:05;17.20;99.90
16198;DHT22;8206;51.440;6.914;2023-07-31T06:54:32;17.20;99.90
16198;DHT22;8206;51.440;6.914;2023-07-31T06:56:58;17.20;99.90
16198;DHT22;8206;51.440;6.914;2023-07-31T06:59:25;17.20;99.90
16198;DHT22;8206;51.440;6.914;2023-07-31T07:01:52;17.20;99.90
16198;DHT22;8206;51.440;6.914;2023-07-31T07:04:18;17.20;99.90
16198;DHT22;8206;51.440;6.914;2023-07-31T07:06:46;17.30;99.90
16198;DHT22;8206;51.440;6.914;2023-07-31T07:09:13;17.40;99.90
16198;DHT22;8206;51.440;6.914;2023-07-31T07:11:40;17.40;99.90
16198;DHT22;8206;51.440;6.914;2023-07-31T07:14:06;17.40;99.90
16198;DHT22;8206;51.440;6.914;2023-07-31T07:16:33;17.40;99.90
16198;DHT22;8206;51.440;6.914;2023-07-31T07:19:00;17.40;99.90
16198;DHT22;8206;51.440;6.914;2023-07-31T07:21:27;17.40;99.90
16198;DHT22;8206;51.440;6.914;2023-07-31T07:23:55;17.40;99.90
16198;DHT22;8206;51.440;6.914;2023-07-31T07:26:21;17.40;99.90
16198;DHT22;8206;51.440;6.914;2023-07-31T07:28:48;17.40;99.90
16198;DHT22;8206;51.440;6.914;2023-07-31T07:31:15;17.40;99.90
16198;DHT22;8206;51.440;6.914;2023-07-31T07:33:41;17.50;99.90
16198;DHT22;8206;51.440;6.914;2023-07-31T07:36:08;17.40;99.90
16198;DHT22;8206;51.440;6.914;2023-07-31T07:38:35;17.50;99.90
16198;DHT22;8206;51.440;6.914;2023-07-31T07:41:03;17.50;99.90
16198;DHT22;8206;51.440;6.914;2023-07-31T07:43:30;17.70;99.90
16198;DHT22;8206;51.440;6.914;2023-07-31T07:45:57;17.70;99.90
16198;DHT22;8206;51.440;6.914;2023-07-31T07:48:23;17.70;99.90
16198;DHT22;8206;51.440;6.914;2023-07-31T07:50:50;17.70;99.90
16198;DHT22;8206;51.440;6.914;2023-07-31T07:53:17;17.60;99.90
16198;DHT22;8206;51.440;6.914;2023-07-31T07:55:44;17.60;99.90
16198;DHT22;8206;51.440;6.914;2023-07-31T07:58:12;17.40;99.90
16198;DHT22;8206;51.440;6.914;2023-07-31T08:00:38;17.40;99.90
16198;DHT22;8206;51.440;6.914;2023-07-31T08:03:06;17.30;99.90
16198;DHT22;8206;51.440;6.914;2023-07-31T08:05:32;17.30;99.90
16198;DHT22;8206;51.440;6.914;2023-07-31T08:08:00;17.20;99.90
16198;DHT22;8206;51.440;6.914;2023-07-31T08:10:26;17.20;99.90
16198;DHT22;8206;51.440;6.914;2023-07-31T08:12:53;17.30;99.90
16198;DHT22;8206;51.440;6.914;2023-07-31T08:15:21;17.40;99.90
16198;DHT22;8206;51.440;6.914;2023-07-31T08:17:48;17.70;99.90
16198;DHT22;8206;51.440;6.914;2023-07-31T08:20:15;18.00;99.90
16198;DHT22;8206;51.440;6.914;2023-07-31T08:22:41;18.10;99.90
16198;DHT22;8206;51.440;6.914;2023-07-31T08:25:08;18.10;99.90
16198;DHT22;8206;51.440;6.914;2023-07-31T08:27:35;18.00;99.90
16198;DHT22;8206;51.440;6.914;2023-07-31T08:30:02;17.90;99.90
16198;DHT22;8206;51.440;6.914;2023-07-31T08:32:30;17.90;99.90
16198;DHT22;8206;51.440;6.914;2023-07-31T08:34:57;17.90;99.90
16198;DHT22;8206;51.440;6.914;2023-07-31T08:37:23;17.90;99.90
16198;DHT22;8206;51.440;6.914;2023-07-31T08:39:50;18.00;99.90
16198;DHT22;8206;51.440;6.914;2023-07-31T08:42:17;18.00;99.90
16198;DHT22;8206;51.440;6.914;2023-07-31T08:44:43;18.10;99.90
16198;DHT22;8206;51.440;6.914;2023-07-31T08:47:11;18.20;99.90
16198;DHT22;8206;51.440;6.914;2023-07-31T08:49:40;18.20;99.90
16198;DHT22;8206;51.440;6.914;2023-07-31T08:52:08;18.10;99.90
16198;DHT22;8206;51.440;6.914;2023-07-31T08:54:36;17.90;99.90
16198;DHT22;8206;51.440;6.914;2023-07-31T08:57:04;17.80;99.90
16198;DHT22;8206;51.440;6.914;2023-07-31T08:59:31;17.60;99.90
16198;DHT22;8206;51.440;6.914;2023-07-31T09:02:05;17.50;99.90
16198;DHT22;8206;51.440;6.914;2023-07-31T09:04:32;17.50;99.90
16198;DHT22;8206;51.440;6.914;2023-07-31T09:07:02;17.50;99.90
16198;DHT22;8206;51.440;6.914;2023-07-31T09:09:29;17.40;99.90
16198;DHT22;8206;51.440;6.914;2023-07-31T09:11:57;17.40;99.90
16198;DHT22;8206;51.440;6.914;2023-07-31T09:14:25;17.30;99.90
16198;DHT22;8206;51.440;6.914;2023-07-31T09:16:53;17.50;99.90
16198;DHT22;8206;51.440;6.914;2023-07-31T09:19:27;17.50;99.90
16198;DHT22;8206;51.440;6.914;2023-07-31T09:21:53;17.60;99.90
16198;DHT22;8206;51.440;6.914;2023-07-31T09:24:29;17.70;99.90
16198;DHT22;8206;51.440;6.914;2023-07-31T09:26:57;17.80;99.90
16198;DHT22;8206;51.440;6.914;2023-07-31T09:29:25;18.00;99.90
16198;DHT22;8206;51.440;6.914;2023-07-31T09:31:53;18.10;99.90
16198;DHT22;8206;51.440;6.914;2023-07-31T09:34:20;18.10;99.90
16198;DHT22;8206;51.440;6.914;2023-07-31T09:36:48;18.10;99.90
16198;DHT22;8206;51.440;6.914;2023-07-31T09:39:17;18.20;99.90
16198;DHT22;8206;51.440;6.914;2023-07-31T09:41:54;18.20;99.90
16198;DHT22;8206;51.440;6.914;2023-07-31T09:44:20;18.10;99.90
16198;DHT22;8206;51.440;6.914;2023-07-31T09:46:48;18.10;99.90
16198;DHT22;8206;51.440;6.914;2023-07-31T09:49:15;18.20;99.90
16198;DHT22;8206;51.440;6.914;2023-07-31T09:51:42;18.30;99.90
16198;DHT22;8206;51.440;6.914;2023-07-31T09:54:10;18.30;99.90
16198;DHT22;8206;51.440;6.914;2023-07-31T09:56:41;18.30;99.90
16198;DHT22;8206;51.440;6.914;2023-07-31T09:59:11;18.30;99.90
16198;DHT22;8206;51.440;6.914;2023-07-31T10:01:38;18.30;99.90
16198;DHT22;8206;51.440;6.914;2023-07-31T10:04:07;18.40;99.90
16198;DHT22;8206;51.440;6.914;2023-07-31T10:06:35;18.40;99.90
16198;DHT22;8206;51.440;6.914;2023-07-31T10:09:03;18.20;99.90
16198;DHT22;8206;51.440;6.914;2023-07-31T10:11:35;18.10;99.90
16198;DHT22;8206;51.440;6.914;2023-07-31T10:14:04;18.10;99.90
16198;DHT22;8206;51.440;6.914;2023-07-31T10:16:34;18.00;99.90
16198;DHT22;8206;51.440;6.914;2023-07-31T10:19:01;17.90;99.90
16198;DHT22;8206;51.440;6.914;2023-07-31T10:21:30;17.80;99.90
16198;DHT22;8206;51.440;6.914;2023-07-31T10:24:01;17.70;99.90
16198;DHT22;8206;51.440;6.914;2023-07-31T10:26:29;17.80;99.90
16198;DHT22;8206;51.440;6.914;2023-07-31T10:28:58;17.80;99.90
16198;DHT22;8206;51.440;6.914;2023-07-31T10:31:25;17.80;99.90
16198;DHT22;8206;51.440;6.914;2023-07-31T10:33:55;17.90;99.90
16198;DHT22;8206;51.440;6.914;2023-07-31T10:36:22;18.00;99.90
16198;DHT22;8206;51.440;6.914;2023-07-31T10:38:49;18.10;99.90
16198;DHT22;8206;51.440;6.914;2023-07-31T10:41:16;18.10;99.90
16198;DHT22;8206;51.440;6.914;2023-07-31T10:43:45;18.20;99.90
16198;DHT22;8206;51.440;6.914;2023-07-31T10:46:13;18.40;99.90
16198;DHT22;8206;51.440;6.914;2023-07-31T10:48:41;18.50;99.90
16198;DHT22;8206;51.440;6.914;2023-07-31T10:51:10;18.70;99.90
16198;DHT22;8206;51.440;6.914;2023-07-31T10:53:38;18.70;99.90
16198;DHT22;8206;51.440;6.914;2023-07-31T10:56:05;18.80;99.90
16198;DHT22;8206;51.440;6.914;2023-07-31T10:58:32;19.00;99.90
16198;DHT22;8206;51.440;6.914;2023-07-31T11:01:01;19.10;99.90
16198;DHT22;8206;51.440;6.914;2023-07-31T11:03:42;19.10;99.90
16198;DHT22;8206;51.440;6.914;2023-07-31T11:06:10;19.30;99.90
16198;DHT22;8206;51.440;6.914;2023-07-31T11:08:42;19.40;99.90
16198;DHT22;8206;51.440;6.914;2023-07-31T11:11:10;19.40;99.90
16198;DHT22;8206;51.440;6.914;2023-07-31T11:13:41;19.20;99.90
16198;DHT22;8206;51.440;6.914;2023-07-31T11:16:08;19.10;99.90
16198;DHT22;8206;51.440;6.914;2023-07-31T11:18:35;19.10;99.90
16198;DHT22;8206;51.440;6.914;2023-07-31T11:21:02;19.10;99.90
16198;DHT22;8206;51.440;6.914;2023-07-31T11:23:30;19.30;99.90
16198;DHT22;8206;51.440;6.914;2023-07-31T11:25:59;19.50;99.90
16198;DHT22;8206;51.440;6.914;2023-07-31T11:28:31;19.50;99.90
16198;DHT22;8206;51.440;6.914;2023-07-31T11:30:58;19.50;99.90
16198;DHT22;8206;51.440;6.914;2023-07-31T11:33:24;19.40;99.90
16198;DHT22;8206;51.440;6.914;2023-07-31T11:35:51;19.40;99.90
16198;DHT22;8206;51.440;6.914;2023-07-31T11:38:21;19.60;99.90
16198;DHT22;8206;51.440;6.914;2023-07-31T11:40:51;19.80;99.90
16198;DHT22;8206;51.440;6.914;2023-07-31T11:43:18;19.90;99.90
16198;DHT22;8206;51.440;6.914;2023-07-31T11:45:47;20.00;99.90
16198;DHT22;8206;51.440;6.914;2023-07-31T11:48:19;20.00;99.90
16198;DHT22;8206;51.440;6.914;2023-07-31T11:50:48;19.80;99.90
16198;DHT22;8206;51.440;6.914;2023-07-31T11:53:17;19.80;99.90
16198;DHT22;8206;51.440;6.914;2023-07-31T11:55:45;19.80;99.90
16198;DHT22;8206;51.440;6.914;2023-07-31T11:58:14;19.70;99.90
16198;DHT22;8206;51.440;6.914;2023-07-31T12:00:42;19.70;99.90
16198;DHT22;8206;51.440;6.914;2023-07-31T12:03:09;19.60;99.90
16198;DHT22;8206;51.440;6.914;2023-07-31T12:05:37;19.60;99.90
16198;DHT22;8206;51.440;6.914;2023-07-31T12:08:09;19.40;99.90
16198;DHT22;8206;51.440;6.914;2023-07-31T12:10:35;19.30;99.90
16198;DHT22;8206;51.440;6.914;2023-07-31T12:13:03;19.20;99.90
16198;DHT22;8206;51.440;6.914;2023-07-31T12:15:36;19.00;99.90
16198;DHT22;8206;51.440;6.914;2023-07-31T12:18:08;18.90;99.90
16198;DHT22;8206;51.440;6.914;2023-07-31T12:20:39;18.80;99.90
16198;DHT22;8206;51.440;6.914;2023-07-31T12:23:06;18.70;99.90
16198;DHT22;8206;51.440;6.914;2023-07-31T12:25:33;18.50;99.90
16198;DHT22;8206;51.440;6.914;2023-07-31T12:28:05;18.50;99.90
16198;DHT22;8206;51.440;6.914;2023-07-31T12:30:39;18.60;99.90
16198;DHT22;8206;51.440;6.914;2023-07-31T12:33:06;18.60;99.90
16198;DHT22;8206;51.440;6.914;2023-07-31T12:35:37;18.60;99.90
16198;DHT22;8206;51.440;6.914;2023-07-31T12:38:04;18.80;99.90
16198;DHT22;8206;51.440;6.914;2023-07-31T12:40:31;19.00;99.90
16198;DHT22;8206;51.440;6.914;2023-07-31T12:42:57;19.50;99.90
16198;DHT22;8206;51.440;6.914;2023-07-31T12:45:24;19.90;99.90
16198;DHT22;8206;51.440;6.914;2023-07-31T12:47:52;20.00;99.90
16198;DHT22;8206;51.440;6.914;2023-07-31T12:50:19;19.80;99.90
16198;DHT22;8206;51.440;6.914;2023-07-31T12:52:45;19.60;99.90
16198;DHT22;8206;51.440;6.914;2023-07-31T12:55:12;19.40;99.90
16198;DHT22;8206;51.440;6.914;2023-07-31T12:57:39;19.30;99.90
16198;DHT22;8206;51.440;6.914;2023-07-31T13:00:08;19.30;99.90
16198;DHT22;8206;51.440;6.914;2023-07-31T13:02:35;19.20;99.90
16198;DHT22;8206;51.440;6.914;2023-07-31T13:05:03;19.20;99.90
16198;DHT22;8206;51.440;6.914;2023-07-31T13:07:30;19.10;99.90
16198;DHT22;8206;51.440;6.914;2023-07-31T13:09:57;19.10;99.90
16198;DHT22;8206;51.440;6.914;2023-07-31T13:12:23;19.20;99.90
16198;DHT22;8206;51.440;6.914;2023-07-31T13:14:50;19.40;99.90
16198;DHT22;8206;51.440;6.914;2023-07-31T13:17:17;19.80;99.90
16198;DHT22;8206;51.440;6.914;2023-07-31T13:19:44;20.20;99.90
16198;DHT22;8206;51.440;6.914;2023-07-31T13:22:12;20.40;99.90
16198;DHT22;8206;51.440;6.914;2023-07-31T13:24:39;20.40;99.90
16198;DHT22;8206;51.440;6.914;2023-07-31T13:27:06;20.40;99.90
16198;DHT22;8206;51.440;6.914;2023-07-31T13:29:32;20.30;99.90
16198;DHT22;8206;51.440;6.914;2023-07-31T13:31:59;20.00;99.90
16198;DHT22;8206;51.440;6.914;2023-07-31T13:34:26;19.80;99.90
16198;DHT22;8206;51.440;6.914;2023-07-31T13:36:54;19.70;99.90
16198;DHT22;8206;51.440;6.914;2023-07-31T13:39:22;19.70;99.90
16198;DHT22;8206;51.440;6.914;2023-07-31T13:41:49;19.70;99.90
16198;DHT22;8206;51.440;6.914;2023-07-31T13:44:16;19.70;99.90
16198;DHT22;8206;51.440;6.914;2023-07-31T13:46:42;19.80;99.90
16198;DHT22;8206;51.440;6.914;2023-07-31T13:49:09;19.80;99.90
16198;DHT22;8206;51.440;6.914;2023-07-31T13:51:36;19.80;99.90
16198;DHT22;8206;51.440;6.914;2023-07-31T13:54:04;19.70;99.90
16198;DHT22;8206;51.440;6.914;2023-07-31T13:56:33;19.70;99.90
16198;DHT22;8206;51.440;6.914;2023-07-31T13:59:00;19.60;99.90
16198;DHT22;8206;51.440;6.914;2023-07-31T14:01:27;19.70;99.90
16198;DHT22;8206;51.440;6.914;2023-07-31T14:03:54;19.90;99.90
16198;DHT22;8206;51.440;6.914;2023-07-31T14:06:20;20.20;99.90
16198;DHT22;8206;51.440;6.914;2023-07-31T14:08:47;20.60;99.90
16198;DHT22;8206;51.440;6.914;2023-07-31T14:11:14;20.90;99.90
16198;DHT22;8206;51.440;6.914;2023-07-31T14:13:42;21.20;99.90
16198;DHT22;8206;51.440;6.914;2023-07-31T14:16:08;21.30;99.90
16198;DHT22;8206;51.440;6.914;2023-07-31T14:18:35;21.30;99.90
16198;DHT22;8206;51.440;6.914;2023-07-31T14:21:02;21.20;99.90
16198;DHT22;8206;51.440;6.914;2023-07-31T14:23:28;21.20;99.90
16198;DHT22;8206;51.440;6.914;2023-07-31T14:25:55;21.00;99.90
16198;DHT22;8206;51.440;6.914;2023-07-31T14:28:22;20.90;99.90
16198;DHT22;8206;51.440;6.914;2023-07-31T14:30:50;20.80;99.90
16198;DHT22;8206;51.440;6.914;2023-07-31T14:33:17;20.50;99.90
16198;DHT22;8206;51.440;6.914;2023-07-31T14:35:43;20.20;99.90
16198;DHT22;8206;51.440;6.914;2023-07-31T14:38:10;20.00;99.90
16198;DHT22;8206;51.440;6.914;2023-07-31T14:40:37;19.80;99.90
16198;DHT22;8206;51.440;6.914;2023-07-31T14:43:03;19.80;99.90
16198;DHT22;8206;51.440;6.914;2023-07-31T14:45:30;19.50;99.90
16198;DHT22;8206;51.440;6.914;2023-07-31T14:47:58;19.40;99.90
16198;DHT22;8206;51.440;6.914;2023-07-31T14:50:25;19.40;99.90
16198;DHT22;8206;51.440;6.914;2023-07-31T14:52:52;19.30;99.90
16198;DHT22;8206;51.440;6.914;2023-07-31T14:55:19;19.30;99.90
16198;DHT22;8206;51.440;6.914;2023-07-31T14:57:46;19.40;99.90
16198;DHT22;8206;51.440;6.914;2023-07-31T15:00:13;19.40;99.90
16198;DHT22;8206;51.440;6.914;2023-07-31T15:02:40;19.30;99.90
16198;DHT22;8206;51.440;6.914;2023-07-31T15:05:09;19.20;99.90
16198;DHT22;8206;51.440;6.914;2023-07-31T15:07:36;19.10;99.90
16198;DHT22;8206;51.440;6.914;2023-07-31T15:10:03;19.00;99.90
16198;DHT22;8206;51.440;6.914;2023-07-31T15:12:31;18.90;99.90
16198;DHT22;8206;51.440;6.914;2023-07-31T15:14:58;18.90;99.90
16198;DHT22;8206;51.440;6.914;2023-07-31T15:17:24;18.90;99.90
16198;DHT22;8206;51.440;6.914;2023-07-31T15:19:51;18.90;99.90
16198;DHT22;8206;51.440;6.914;2023-07-31T15:22:19;18.90;99.90
16198;DHT22;8206;51.440;6.914;2023-07-31T15:24:46;18.90;99.90
16198;DHT22;8206;51.440;6.914;2023-07-31T15:27:14;18.90;99.90
16198;DHT22;8206;51.440;6.914;2023-07-31T15:29:41;19.00;99.90
16198;DHT22;8206;51.440;6.914;2023-07-31T15:32:08;19.00;99.90
16198;DHT22;8206;51.440;6.914;2023-07-31T15:34:34;19.00;99.90
16198;DHT22;8206;51.440;6.914;2023-07-31T15:37:01;19.10;99.90
16198;DHT22;8206;51.440;6.914;2023-07-31T15:39:29;19.10;99.90
16198;DHT22;8206;51.440;6.914;2023-07-31T15:41:56;19.10;99.90
16198;DHT22;8206;51.440;6.914;2023-07-31T15:44:22;19.10;99.90
16198;DHT22;8206;51.440;6.914;2023-07-31T15:46:49;19.10;99.90